Time;durP1;ratioP1;P1;durP2;ratioP2;P2;SDS_P1;SDS_P2;PMS_P1;PMS_P2;Temp;Humidity;BMP_temperature;BMP_pressure;BME280_temperature;BME280_humidity;BME280_pressure;Samples;Min_cycle;Max_cycle;Signal;HPM_P1;HPM_P2
2023/08/01 00:00:16;;;;;;;5.70;1.50;;;;;;;16.26;100.00;99203.19;106238;1254;71531;-71
2023/08/01 00:02:46;;;;;;;3.20;1.30;;;;;;;16.27;100.00;99199.84;106486;1253;61244;-71
2023/08/01 00:05:14;;;;;;;4.70;1.50;;;;;;;16.28;100.00;99204.51;106178;1251;61193;-72
2023/08/01 00:07:41;;;;;;;3.60;1.50;;;;;;;16.28;100.00;99202.63;106114;1251;74746;-71
2023/08/01 00:10:08;;;;;;;3.30;1.50;;;;;;;16.29;100.00;99198.67;106116;1254;70032;-70
2023/08/01 00:12:35;;;;;;;3.80;1.40;;;;;;;16.28;100.00;99200.65;106224;1251;71512;-72
2023/08/01 00:15:03;;;;;;;2.60;1.50;;;;;;;16.30;100.00;99192.11;106162;1251;61776;-72
2023/08/01 00:17:30;;;;;;;2.50;1.50;;;;;;;16.29;100.00;99178.23;106307;1251;61270;-71
2023/08/01 00:19:56;;;;;;;2.50;1.40;;;;;;;16.29;100.00;99170.79;106181;1254;74672;-70
2023/08/01 00:22:23;;;;;;;2.80;1.30;;;;;;;16.28;100.00;99169.83;106179;1251;61776;-71
2023/08/01 00:24:50;;;;;;;4.20;1.40;;;;;;;16.28;100.00;99161.69;106245;1253;74232;-70
2023/08/01 00:27:17;;;;;;;4.00;1.50;;;;;;;16.28;100.00;99155.59;106139;1249;61148;-71
2023/08/01 00:29:45;;;;;;;3.70;1.50;;;;;;;16.29;100.00;99150.02;106385;1251;61715;-71
2023/08/01 00:32:12;;;;;;;2.60;1.40;;;;;;;16.28;100.00;99143.44;106271;1254;73324;-70
2023/08/01 00:34:39;;;;;;;3.70;1.70;;;;;;;16.28;100.00;99143.08;106383;1251;71177;-72
2023/08/01 00:37:06;;;;;;;2.70;1.40;;;;;;;16.29;100.00;99141.63;106154;1253;71330;-71
2023/08/01 00:39:33;;;;;;;4.60;1.50;;;;;;;16.28;100.00;99129.58;106189;1251;62060;-71
2023/08/01 00:41:59;;;;;;;2.90;1.40;;;;;;;16.29;100.00;99123.75;106354;1251;61727;-72
2023/08/01 00:44:26;;;;;;;3.90;1.40;;;;;;;16.29;100.00;99115.88;106349;1251;61254;-70
2023/08/01 00:46:53;;;;;;;3.40;1.50;;;;;;;16.29;100.00;99108.45;106381;1251;71185;-71
2023/08/01 00:49:20;;;;;;;2.20;1.30;;;;;;;16.28;100.00;99110.10;106156;1251;71201;-70
2023/08/01 00:51:47;;;;;;;2.60;1.30;;;;;;;16.27;100.00;99108.04;106162;1251;62090;-70
2023/08/01 00:54:14;;;;;;;3.80;1.60;;;;;;;16.26;100.00;99107.19;106186;1251;61253;-70
2023/08/01 00:56:42;;;;;;;4.70;1.50;;;;;;;16.26;100.00;99102.69;106304;1251;75214;-71
2023/08/01 00:59:09;;;;;;;2.90;1.40;;;;;;;16.28;100.00;99107.89;106074;1251;70204;-70
2023/08/01 01:01:36;;;;;;;3.00;1.60;;;;;;;16.28;100.00;99109.13;106137;1251;71583;-70
2023/08/01 01:04:03;;;;;;;3.80;1.40;;;;;;;16.28;100.00;99103.40;106138;1250;61263;-70
2023/08/01 01:06:41;;;;;;;3.00;1.40;;;;;;;16.29;100.00;99105.34;106166;1256;61242;-70
2023/08/01 01:09:19;;;;;;;3.30;1.50;;;;;;;16.30;100.00;99104.08;106224;1251;74132;-71
2023/08/01 01:11:46;;;;;;;2.80;1.40;;;;;;;16.30;100.00;99103.11;106170;1253;69708;-70
2023/08/01 01:14:13;;;;;;;2.70;1.40;;;;;;;16.30;100.00;99088.12;106204;1252;72717;-72
2023/08/01 01:16:40;;;;;;;3.90;1.40;;;;;;;16.31;100.00;99087.16;106283;1256;61728;-70
2023/08/01 01:19:09;;;;;;;4.40;1.40;;;;;;;16.31;100.00;99078.61;106164;1254;61715;-70
2023/08/01 01:21:38;;;;;;;3.80;1.30;;;;;;;16.30;100.00;99079.98;106173;1254;74695;-70
2023/08/01 01:24:09;;;;;;;3.60;1.30;;;;;;;16.29;100.00;99081.54;106312;1251;71823;-71
2023/08/01 01:26:37;;;;;;;2.40;1.30;;;;;;;16.29;100.00;99080.14;106350;1257;72929;-70
2023/08/01 01:29:05;;;;;;;4.20;1.40;;;;;;;16.28;100.00;99076.55;106221;1250;61235;-71
2023/08/01 01:31:34;;;;;;;3.00;1.40;;;;;;;16.28;100.00;99072.96;106217;1251;61179;-70
2023/08/01 01:34:01;;;;;;;6.50;1.40;;;;;;;16.29;100.00;99073.98;106263;1251;73882;-71
2023/08/01 01:36:29;;;;;;;4.20;1.40;;;;;;;16.28;100.00;99073.77;106429;1250;71195;-70
2023/08/01 01:38:55;;;;;;;4.00;1.30;;;;;;;16.28;100.00;99071.98;106259;1250;71488;-70
2023/08/01 01:41:23;;;;;;;2.50;1.10;;;;;;;16.27;100.00;99069.42;106179;1251;61338;-72
2023/08/01 01:43:49;;;;;;;4.20;1.20;;;;;;;16.27;100.00;99060.30;106201;1250;61155;-70
2023/08/01 01:46:16;;;;;;;2.50;1.20;;;;;;;16.27;100.00;99058.17;106315;1250;74065;-71
2023/08/01 01:48:44;;;;;;;3.40;1.20;;;;;;;16.27;100.00;99057.86;106252;1250;71146;-70
2023/08/01 01:51:10;;;;;;;4.20;1.10;;;;;;;16.26;100.00;99051.74;106226;1254;72656;-72
2023/08/01 01:53:37;;;;;;;5.00;1.20;;;;;;;16.26;100.00;99048.48;106165;1250;61260;-70
2023/08/01 01:56:04;;;;;;;4.40;1.20;;;;;;;16.25;100.00;99046.39;106127;1250;61222;-71
2023/08/01 01:58:31;;;;;;;4.40;1.20;;;;;;;16.26;100.00;99040.08;106391;1253;73830;-71
2023/08/01 02:00:58;;;;;;;3.60;1.10;;;;;;;16.25;100.00;99035.30;106216;1250;70922;-72
2023/08/01 02:03:25;;;;;;;1.70;1.00;;;;;;;16.25;100.00;99036.43;106173;1250;72361;-71
2023/08/01 02:05:52;;;;;;;2.70;1.10;;;;;;;16.23;100.00;99033.19;106214;1250;62130;-71
2023/08/01 02:08:19;;;;;;;3.30;0.90;;;;;;;16.22;100.00;99025.21;106307;1257;61181;-72
2023/08/01 02:10:46;;;;;;;2.40;0.80;;;;;;;16.21;100.00;99021.56;106307;1251;74612;-71
2023/08/01 02:13:12;;;;;;;3.20;1.10;;;;;;;16.20;100.00;99013.58;106192;1250;70009;-72
2023/08/01 02:15:39;;;;;;;3.20;0.90;;;;;;;16.19;100.00;99008.17;106092;1255;72632;-71
2023/08/01 02:18:06;;;;;;;2.00;0.80;;;;;;;16.18;100.00;99003.03;106281;1254;61334;-70
2023/08/01 02:20:33;;;;;;;3.60;1.00;;;;;;;16.17;100.00;98999.08;106428;1256;61243;-71
2023/08/01 02:23:00;;;;;;;3.70;0.80;;;;;;;16.15;100.00;98999.58;106183;1252;73310;-72
2023/08/01 02:25:27;;;;;;;1.70;0.70;;;;;;;16.14;100.00;98999.73;106129;1251;69043;-71
2023/08/01 02:27:53;;;;;;;1.40;0.60;;;;;;;16.12;100.00;99003.39;106149;1251;71434;-70
2023/08/01 02:30:20;;;;;;;2.30;0.90;;;;;;;16.10;100.00;98996.64;106244;1254;62835;-71
2023/08/01 02:32:47;;;;;;;4.50;0.80;;;;;;;16.08;100.00;98993.25;106222;1250;61228;-70
2023/08/01 02:35:14;;;;;;;2.40;0.70;;;;;;;16.06;100.00;98984.87;106189;1254;74650;-72
2023/08/01 02:37:41;;;;;;;2.40;0.90;;;;;;;16.04;100.00;98982.18;106164;1252;69773;-71
2023/08/01 02:40:09;;;;;;;2.70;0.60;;;;;;;16.03;100.00;98985.34;106193;1251;73177;-71
2023/08/01 02:42:35;;;;;;;3.10;0.70;;;;;;;16.02;100.00;98980.02;106325;1250;62445;-71
2023/08/01 02:45:03;;;;;;;2.20;0.70;;;;;;;16.01;100.00;98980.13;106083;1250;61244;-72
2023/08/01 02:47:30;;;;;;;2.10;0.50;;;;;;;16.00;100.00;98970.39;106172;1250;75286;-71
2023/08/01 02:49:57;;;;;;;2.40;0.60;;;;;;;16.00;100.00;98967.45;106521;1250;70024;-72
2023/08/01 02:52:23;;;;;;;1.90;0.50;;;;;;;16.00;100.00;98977.06;106326;1251;71197;-72
2023/08/01 02:54:50;;;;;;;1.80;0.60;;;;;;;16.01;100.00;98972.15;106221;1251;61118;-71
2023/08/01 02:57:17;;;;;;;1.40;0.40;;;;;;;16.02;100.00;98965.73;106231;1251;61201;-70
2023/08/01 02:59:44;;;;;;;3.60;0.60;;;;;;;16.02;100.00;98964.20;106273;1251;74629;-71
2023/08/01 03:02:11;;;;;;;2.50;0.60;;;;;;;16.03;100.00;98955.55;106261;1253;70444;-74
2023/08/01 03:04:38;;;;;;;3.50;0.80;;;;;;;16.04;100.00;98951.70;106442;1250;71326;-71
2023/08/01 03:07:13;;;;;;;1.10;0.50;;;;;;;16.04;100.00;98951.85;106214;1250;61264;-72
2023/08/01 03:09:40;;;;;;;2.70;0.50;;;;;;;16.06;100.00;98946.36;106245;1250;63154;-71
2023/08/01 03:12:07;;;;;;;2.40;0.60;;;;;;;16.06;100.00;98941.45;106135;1254;72642;-70
2023/08/01 03:14:33;;;;;;;3.20;0.60;;;;;;;16.04;100.00;98942.34;106299;1250;69916;-70
2023/08/01 03:17:00;;;;;;;1.40;0.40;;;;;;;16.04;100.00;98942.38;106166;1255;72648;-72
2023/08/01 03:19:27;;;;;;;1.70;0.40;;;;;;;16.03;100.00;98945.70;106217;1251;61305;-71
2023/08/01 03:21:55;;;;;;;2.50;0.50;;;;;;;16.02;100.00;98951.73;106151;1250;61274;-71
2023/08/01 03:24:22;;;;;;;2.00;0.50;;;;;;;16.03;100.00;98949.17;106293;1250;74518;-71
2023/08/01 03:26:49;;;;;;;2.80;0.50;;;;;;;16.02;100.00;98940.14;106201;1253;71013;-70
2023/08/01 03:29:16;;;;;;;3.30;0.40;;;;;;;16.03;100.00;98927.62;106136;1250;71550;-71
2023/08/01 03:31:43;;;;;;;2.70;0.60;;;;;;;16.01;100.00;98925.67;106178;1249;61348;-71
2023/08/01 03:34:10;;;;;;;2.90;0.60;;;;;;;16.00;100.00;98930.64;106166;1250;61253;-71
2023/08/01 03:36:36;;;;;;;0.80;0.30;;;;;;;15.99;100.00;98920.69;106483;1253;73697;-70
2023/08/01 03:39:04;;;;;;;1.80;0.40;;;;;;;15.98;100.00;98915.38;106194;1251;70958;-71
2023/08/01 03:41:32;;;;;;;2.20;0.40;;;;;;;15.96;100.00;98921.73;106207;1250;71879;-71
2023/08/01 03:43:59;;;;;;;1.30;0.40;;;;;;;15.96;100.00;98918.08;106232;1250;62512;-72
2023/08/01 03:46:26;;;;;;;1.60;0.30;;;;;;;15.95;100.00;98914.87;106299;1250;61328;-71
2023/08/01 03:48:54;;;;;;;1.10;0.40;;;;;;;15.94;100.00;98918.64;106305;1252;73693;-70
2023/08/01 03:51:21;;;;;;;1.60;0.40;;;;;;;15.93;100.00;98909.66;106331;1255;70417;-71
2023/08/01 03:53:48;;;;;;;1.10;0.50;;;;;;;15.92;100.00;98894.08;106254;1254;71593;-71
2023/08/01 03:56:33;;;;;;;1.70;0.50;;;;;;;15.90;100.00;98895.73;106322;1251;61353;-72
2023/08/01 03:59:00;;;;;;;2.70;0.50;;;;;;;15.89;100.00;98906.36;106230;1250;62014;-72
2023/08/01 04:01:27;;;;;;;2.70;0.40;;;;;;;15.89;100.00;98911.80;106172;1250;75837;-70
2023/08/01 04:03:53;;;;;;;2.80;0.50;;;;;;;15.87;100.00;98910.52;106335;1250;71629;-72
2023/08/01 04:06:20;;;;;;;1.50;0.50;;;;;;;15.87;100.00;98909.66;106393;1253;71670;-72
2023/08/01 04:08:47;;;;;;;2.00;0.50;;;;;;;15.86;100.00;98913.34;106159;1250;61731;-70
2023/08/01 04:11:14;;;;;;;2.30;0.50;;;;;;;15.85;100.00;98909.81;106324;1254;61686;-72
2023/08/01 04:13:41;;;;;;;3.20;0.50;;;;;;;15.85;100.00;98898.95;106332;1250;73929;-73
2023/08/01 04:16:08;;;;;;;1.00;0.40;;;;;;;15.85;100.00;98899.69;106374;1252;71265;-72
2023/08/01 04:18:35;;;;;;;2.50;0.50;;;;;;;15.85;100.00;98894.63;106282;1253;71561;-71
2023/08/01 04:21:02;;;;;;;1.40;0.40;;;;;;;15.86;100.00;98884.73;106109;1250;61904;-71
2023/08/01 04:23:29;;;;;;;1.30;0.40;;;;;;;15.86;100.00;98881.42;106230;1251;61257;-72
2023/08/01 04:25:55;;;;;;;2.00;0.40;;;;;;;15.87;100.00;98888.64;106220;1254;74567;-71
2023/08/01 04:28:22;;;;;;;2.90;0.40;;;;;;;15.87;100.00;98897.91;106451;1253;71118;-73
2023/08/01 04:30:50;;;;;;;1.40;0.40;;;;;;;15.87;100.00;98905.27;106167;1250;72522;-71
2023/08/01 04:33:17;;;;;;;0.80;0.40;;;;;;;15.85;100.00;98904.79;106212;1250;61720;-70
2023/08/01 04:35:44;;;;;;;2.20;0.50;;;;;;;15.85;100.00;98910.68;106237;1251;61825;-72
2023/08/01 04:38:15;;;;;;;2.90;1.00;;;;;;;15.85;100.00;98911.63;106191;1252;75784;-72
2023/08/01 04:40:43;;;;;;;4.00;1.60;;;;;;;15.84;100.00;98913.54;106274;1253;71613;-71
2023/08/01 04:43:12;;;;;;;3.20;1.10;;;;;;;15.81;100.00;98907.74;106175;1250;71537;-72
2023/08/01 04:45:39;;;;;;;1.50;0.70;;;;;;;15.81;100.00;98907.63;106266;1253;61367;-69
2023/08/01 04:48:06;;;;;;;2.10;0.70;;;;;;;15.80;100.00;98907.73;106158;1250;61240;-72
2023/08/01 04:50:32;;;;;;;2.00;0.70;;;;;;;15.79;100.00;98903.60;106251;1250;72969;-71
2023/08/01 04:52:59;;;;;;;2.10;0.70;;;;;;;15.80;100.00;98906.60;106207;1254;69770;-69
2023/08/01 04:55:26;;;;;;;2.70;0.60;;;;;;;15.80;100.00;98908.67;106010;1252;72683;-70
2023/08/01 04:57:53;;;;;;;1.40;0.60;;;;;;;15.79;100.00;98907.24;106119;1250;62093;-71
2023/08/01 05:00:19;;;;;;;2.70;0.60;;;;;;;15.76;100.00;98907.69;106446;1251;61450;-73
2023/08/01 05:02:47;;;;;;;1.40;0.50;;;;;;;15.77;100.00;98908.30;106235;1250;75012;-71
2023/08/01 05:05:15;;;;;;;3.10;0.60;;;;;;;15.77;100.00;98910.59;106165;1250;70091;-71
2023/08/01 05:07:42;;;;;;;1.90;0.70;;;;;;;15.79;100.00;98909.70;106316;1251;72598;-72
2023/08/01 05:10:09;;;;;;;2.40;0.80;;;;;;;15.81;100.00;98910.36;106194;1253;61342;-73
2023/08/01 05:12:36;;;;;;;2.60;0.70;;;;;;;15.84;100.00;98909.27;106352;1250;61180;-72
2023/08/01 05:15:04;;;;;;;1.80;0.70;;;;;;;15.86;100.00;98914.69;106316;1251;73433;-72
2023/08/01 05:17:31;;;;;;;2.80;0.70;;;;;;;15.88;100.00;98912.02;106335;1250;71232;-72
2023/08/01 05:19:58;;;;;;;1.70;0.70;;;;;;;15.89;100.00;98912.61;106181;1251;72764;-71
2023/08/01 05:22:24;;;;;;;1.80;0.80;;;;;;;15.90;100.00;98915.24;106370;1251;61308;-70
2023/08/01 05:24:51;;;;;;;2.40;0.90;;;;;;;15.93;100.00;98922.16;106126;1251;61282;-70
2023/08/01 05:27:18;;;;;;;3.10;0.70;;;;;;;15.94;100.00;98920.52;106080;1251;73470;-71
2023/08/01 05:29:45;;;;;;;2.30;0.90;;;;;;;15.95;100.00;98919.46;106193;1253;69901;-71
2023/08/01 05:32:11;;;;;;;4.60;0.80;;;;;;;15.96;100.00;98920.92;106086;1253;71457;-71
2023/08/01 05:34:39;;;;;;;2.70;0.90;;;;;;;15.98;100.00;98920.61;106289;1251;61353;-71
2023/08/01 05:37:06;;;;;;;2.70;0.90;;;;;;;16.00;100.00;98920.54;106096;1251;61206;-71
2023/08/01 05:39:32;;;;;;;1.50;0.70;;;;;;;16.02;100.00;98920.39;106071;1255;74632;-71
2023/08/01 05:41:59;;;;;;;4.80;0.90;;;;;;;16.05;100.00;98917.46;106157;1255;70358;-72
2023/08/01 05:44:26;;;;;;;1.50;0.80;;;;;;;16.08;100.00;98917.73;106211;1251;71281;-72
2023/08/01 05:46:53;;;;;;;1.90;0.80;;;;;;;16.12;100.00;98922.13;106333;1251;61265;-71
2023/08/01 05:49:20;;;;;;;2.60;0.90;;;;;;;16.18;100.00;98922.02;106174;1250;61312;-72
2023/08/01 05:51:47;;;;;;;2.00;0.90;;;;;;;16.25;100.00;98922.98;106307;1250;73139;-70
2023/08/01 05:54:14;;;;;;;3.10;0.90;;;;;;;16.33;100.00;98925.89;106149;1250;71396;-72
2023/08/01 05:56:40;;;;;;;2.50;0.90;;;;;;;16.37;100.00;98927.79;106347;1250;71671;-70
2023/08/01 05:59:08;;;;;;;2.30;0.90;;;;;;;16.43;100.00;98931.85;106183;1250;61355;-71
2023/08/01 06:01:35;;;;;;;3.00;1.00;;;;;;;16.48;100.00;98932.52;106287;1250;61237;-72
2023/08/01 06:04:02;;;;;;;2.30;0.90;;;;;;;16.52;100.00;98932.71;106263;1250;73488;-71
2023/08/01 06:06:29;;;;;;;2.90;1.20;;;;;;;16.55;100.00;98936.80;106464;1250;71556;-70
2023/08/01 06:08:56;;;;;;;1.90;0.80;;;;;;;16.58;100.00;98944.97;106309;1250;72356;-69
2023/08/01 06:11:23;;;;;;;2.70;0.90;;;;;;;16.59;100.00;98951.91;106262;1251;62110;-70
2023/08/01 06:13:50;;;;;;;3.60;1.10;;;;;;;16.62;100.00;98948.73;106222;1254;61118;-69
2023/08/01 06:16:16;;;;;;;2.40;1.10;;;;;;;16.65;100.00;98949.39;106285;1253;74676;-71
2023/08/01 06:18:43;;;;;;;2.70;1.00;;;;;;;16.63;100.00;98945.85;106362;1250;71131;-70
2023/08/01 06:21:10;;;;;;;3.20;0.90;;;;;;;16.61;100.00;98947.23;106327;1250;61219;-70
2023/08/01 06:23:36;;;;;;;3.00;1.30;;;;;;;16.62;100.00;98947.40;106199;1250;61355;-70
2023/08/01 06:26:03;;;;;;;2.70;1.50;;;;;;;16.60;100.00;98945.14;106299;1250;61306;-70
2023/08/01 06:28:30;;;;;;;2.40;1.40;;;;;;;16.59;100.00;98941.55;106352;1253;74456;-73
2023/08/01 06:30:57;;;;;;;3.50;1.80;;;;;;;16.62;100.00;98942.11;106358;1250;70332;-71
2023/08/01 06:33:24;;;;;;;2.70;1.90;;;;;;;16.67;100.00;98943.31;106157;1250;71449;-72
2023/08/01 06:35:51;;;;;;;4.30;2.00;;;;;;;16.65;100.00;98939.83;106202;1250;62197;-71
2023/08/01 06:38:18;;;;;;;3.30;2.10;;;;;;;16.64;100.00;98940.23;106135;1255;61346;-73
2023/08/01 06:40:44;;;;;;;2.70;2.00;;;;;;;16.64;100.00;98943.55;106450;1250;74697;-69
2023/08/01 06:43:11;;;;;;;4.40;2.20;;;;;;;16.61;100.00;98947.98;106233;1250;69888;-72
2023/08/01 06:45:37;;;;;;;4.40;2.10;;;;;;;16.60;100.00;98947.39;106184;1250;71498;-71
2023/08/01 06:48:04;;;;;;;3.70;2.50;;;;;;;16.60;100.00;98947.17;106186;1251;62639;-70
2023/08/01 06:50:31;;;;;;;4.90;2.60;;;;;;;16.64;100.00;98948.64;106288;1250;61271;-71
2023/08/01 06:52:58;;;;;;;6.20;2.60;;;;;;;16.65;100.00;98952.88;106295;1250;73558;-71
2023/08/01 06:55:24;;;;;;;5.20;2.70;;;;;;;16.65;100.00;98953.58;106137;1253;63028;-72
2023/08/01 06:57:51;;;;;;;5.00;2.80;;;;;;;16.65;100.00;98951.11;106247;1250;61345;-69
2023/08/01 07:00:18;;;;;;;3.70;2.60;;;;;;;16.62;100.00;98955.48;106357;1250;61288;-71
2023/08/01 07:02:44;;;;;;;5.40;2.70;;;;;;;16.61;100.00;98955.64;106367;1250;61684;-70
2023/08/01 07:05:11;;;;;;;7.00;3.10;;;;;;;16.60;100.00;98955.52;106149;1251;72824;-70
2023/08/01 07:07:38;;;;;;;4.70;3.20;;;;;;;16.55;100.00;98956.34;106174;1251;61292;-70
2023/08/01 07:10:05;;;;;;;6.60;3.30;;;;;;;16.52;100.00;98961.35;106172;1250;71456;-70
2023/08/01 07:12:32;;;;;;;4.60;2.70;;;;;;;16.51;100.00;98964.29;106250;1254;61340;-71
2023/08/01 07:14:59;;;;;;;4.20;2.80;;;;;;;16.51;100.00;98969.64;106251;1250;61376;-70
2023/08/01 07:17:28;;;;;;;4.60;3.10;;;;;;;16.55;100.00;98970.38;106221;1250;75533;-71
2023/08/01 07:19:55;;;;;;;7.00;3.30;;;;;;;16.60;100.00;98974.75;106190;1250;71688;-70
2023/08/01 07:22:22;;;;;;;7.10;3.20;;;;;;;16.66;100.00;98977.67;106239;1250;72998;-71
2023/08/01 07:24:53;;;;;;;7.70;3.60;;;;;;;16.75;100.00;98981.38;106373;1250;61220;-69
2023/08/01 07:27:21;;;;;;;6.20;3.70;;;;;;;16.83;100.00;98983.44;106374;1254;61259;-69
2023/08/01 07:29:48;;;;;;;8.30;3.90;;;;;;;16.91;100.00;98981.78;106248;1250;73730;-69
2023/08/01 07:32:15;;;;;;;8.10;4.00;;;;;;;16.96;100.00;98989.27;106203;1250;71143;-69
2023/08/01 07:34:41;;;;;;;5.70;3.60;;;;;;;17.01;100.00;98984.63;106459;1250;71415;-70
2023/08/01 07:37:08;;;;;;;7.20;3.70;;;;;;;17.05;100.00;98988.02;106303;1250;62464;-69
2023/08/01 07:39:35;;;;;;;8.00;4.00;;;;;;;17.11;100.00;98992.73;106194;1251;61269;-69
2023/08/01 07:42:02;;;;;;;5.10;3.60;;;;;;;17.16;100.00;98994.63;106113;1250;74706;-70
2023/08/01 07:44:30;;;;;;;7.10;3.90;;;;;;;17.15;100.00;99001.70;106272;1250;70012;-69
2023/08/01 07:46:57;;;;;;;5.90;3.70;;;;;;;17.15;100.00;99006.27;106343;1250;71512;-68
2023/08/01 07:49:24;;;;;;;7.80;3.80;;;;;;;17.17;100.00;99001.06;106199;1250;61171;-69
2023/08/01 07:51:51;;;;;;;7.70;4.00;;;;;;;17.22;100.00;99001.73;106257;1250;61653;-70
2023/08/01 07:54:18;;;;;;;6.80;4.00;;;;;;;17.31;100.00;98999.67;106001;1250;230175;-68
2023/08/01 07:56:48;;;;;;;9.50;4.70;;;;;;;17.38;100.00;99000.31;106435;1255;70089;-69
2023/08/01 07:59:15;;;;;;;7.40;4.40;;;;;;;17.44;100.00;98994.49;106120;1250;72577;-68
2023/08/01 08:01:42;;;;;;;7.70;4.20;;;;;;;17.47;100.00;99001.44;106378;1250;61352;-69
2023/08/01 08:04:08;;;;;;;7.10;4.10;;;;;;;17.48;99.50;99003.09;106203;1254;61123;-67
2023/08/01 08:06:35;;;;;;;8.60;4.30;;;;;;;17.49;99.21;99003.48;106307;1254;74358;-69
2023/08/01 08:09:03;;;;;;;6.40;3.90;;;;;;;17.53;99.58;99002.94;106441;1252;70913;-69
2023/08/01 08:11:29;;;;;;;7.90;4.20;;;;;;;17.59;98.49;99007.80;106234;1250;72678;-68
2023/08/01 08:13:56;;;;;;;8.00;4.30;;;;;;;17.60;97.67;99004.20;106292;1250;62086;-68
2023/08/01 08:16:23;;;;;;;7.10;4.00;;;;;;;17.72;98.31;99010.90;106229;1254;61210;-71
2023/08/01 08:18:50;;;;;;;8.90;4.00;;;;;;;17.87;95.83;99007.92;106416;1252;73529;-68
2023/08/01 08:21:16;;;;;;;5.80;3.90;;;;;;;18.02;95.62;99004.58;106165;1250;70069;-67
2023/08/01 08:23:46;;;;;;;7.70;4.00;;;;;;;18.31;95.25;99005.16;106137;1256;71373;-67
2023/08/01 08:26:13;;;;;;;6.70;3.20;;;;;;;18.47;92.43;99006.34;106145;1250;60864;-67
2023/08/01 08:28:41;;;;;;;7.00;3.40;;;;;;;18.55;92.09;99008.00;106371;1254;61180;-68
2023/08/01 08:31:09;;;;;;;6.00;3.00;;;;;;;18.59;90.76;99012.30;106281;1250;74417;-68
2023/08/01 08:33:35;;;;;;;9.90;3.80;;;;;;;18.53;90.11;99011.87;106254;1250;71204;-68
2023/08/01 08:36:02;;;;;;;8.60;3.60;;;;;;;18.62;91.17;99004.73;106353;1253;71740;-69
2023/08/01 08:38:29;;;;;;;6.30;3.30;;;;;;;18.69;90.66;99004.09;106212;1250;61955;-71
2023/08/01 08:41:09;;;;;;;9.70;3.10;;;;;;;18.78;90.24;98993.88;106391;1254;60459;-68
2023/08/01 08:43:36;;;;;;;5.40;2.60;;;;;;;18.97;88.66;98991.67;106255;1250;73158;-68
2023/08/01 08:46:04;;;;;;;6.20;3.00;;;;;;;19.02;86.52;98990.85;106192;1254;69944;-68
2023/08/01 08:48:32;;;;;;;5.20;2.70;;;;;;;19.08;86.82;98989.60;106372;1250;72925;-70
2023/08/01 08:51:01;;;;;;;4.00;2.30;;;;;;;19.13;85.64;98999.85;106197;1250;62242;-70
2023/08/01 08:53:28;;;;;;;5.00;2.30;;;;;;;19.10;84.71;99009.09;106249;1250;61283;-68
2023/08/01 08:55:55;;;;;;;4.50;2.70;;;;;;;19.12;83.82;99004.84;106275;1254;73132;-68
2023/08/01 08:58:22;;;;;;;5.30;2.60;;;;;;;19.30;84.68;99001.24;106369;1250;70845;-71
2023/08/01 09:00:49;;;;;;;5.80;2.70;;;;;;;19.56;84.48;98998.86;106260;1250;72628;-69
2023/08/01 09:03:16;;;;;;;5.50;2.30;;;;;;;19.82;84.75;98992.50;106315;1250;62286;-69
2023/08/01 09:05:53;;;;;;;5.80;1.90;;;;;;;19.97;80.41;98994.84;106206;1250;61263;-69
2023/08/01 09:08:21;;;;;;;3.90;1.70;;;;;;;20.02;79.89;98994.98;106290;1250;75205;-69
2023/08/01 09:10:48;;;;;;;5.10;2.00;;;;;;;20.05;78.31;98999.48;106309;1250;71352;-69
2023/08/01 09:13:15;;;;;;;3.40;1.60;;;;;;;20.07;77.36;99002.36;106217;1250;72672;-69
2023/08/01 09:15:44;;;;;;;4.20;1.70;;;;;;;19.92;76.80;99001.23;106110;1251;62253;-67
2023/08/01 09:18:11;;;;;;;4.20;1.60;;;;;;;19.73;77.50;99003.30;106198;1254;61122;-71
2023/08/01 09:20:49;;;;;;;3.80;1.80;;;;;;;19.64;78.21;99006.72;106490;1250;74316;-69
2023/08/01 09:23:17;;;;;;;4.20;1.90;;;;;;;19.58;78.67;98996.84;106295;1250;70597;-68
2023/08/01 09:25:44;;;;;;;3.80;1.90;;;;;;;19.56;79.46;98999.66;106249;1250;72410;-68
2023/08/01 09:28:19;;;;;;;3.70;1.80;;;;;;;19.71;80.03;98994.93;106290;1250;61337;-69
2023/08/01 09:30:57;;;;;;;3.50;1.90;;;;;;;19.82;79.86;98989.71;106148;1250;61359;-68
2023/08/01 09:33:25;;;;;;;5.40;2.00;;;;;;;19.98;79.88;98989.88;106302;1254;74329;-67
2023/08/01 09:35:52;;;;;;;4.20;2.10;;;;;;;20.05;79.70;98993.50;106375;1250;70491;-68
2023/08/01 09:38:20;;;;;;;3.60;1.60;;;;;;;20.24;79.98;98998.23;106253;1250;71571;-67
2023/08/01 09:40:47;;;;;;;3.90;1.70;;;;;;;20.30;78.35;98998.23;106329;1249;62122;-67
2023/08/01 09:43:14;;;;;;;4.00;1.60;;;;;;;20.41;76.45;99005.31;106219;1250;61339;-67
2023/08/01 09:45:53;;;;;;;3.00;1.50;;;;;;;20.41;73.83;98998.68;106335;1250;74667;-68
2023/08/01 09:48:25;;;;;;;3.70;1.50;;;;;;;20.37;73.95;98999.42;106416;1254;70121;-67
2023/08/01 09:51:13;;;;;;;3.80;1.50;;;;;;;20.20;73.93;99000.95;106259;1250;71140;-69
2023/08/01 09:53:52;;;;;;;3.00;1.80;;;;;;;20.19;73.76;99004.18;106480;1250;62163;-68
2023/08/01 09:56:27;;;;;;;3.40;1.50;;;;;;;20.29;75.14;99005.95;106313;1254;62563;-68
2023/08/01 09:58:55;;;;;;;2.60;1.40;;;;;;;20.44;74.66;99006.54;106162;1255;73481;-68
2023/08/01 10:01:24;;;;;;;3.10;1.40;;;;;;;20.61;74.21;99003.73;106529;1250;71407;-69
2023/08/01 10:03:52;;;;;;;3.10;1.40;;;;;;;20.61;72.28;98995.73;106119;1250;72810;-71
2023/08/01 10:06:22;;;;;;;5.20;1.40;;;;;;;20.65;73.57;98994.64;106254;1250;61167;-70
2023/08/01 10:08:50;;;;;;;2.90;1.30;;;;;;;20.73;73.52;99008.41;106423;1250;61269;-70
2023/08/01 10:11:20;;;;;;;3.10;1.40;;;;;;;20.81;72.63;99009.48;106416;1250;74659;-70
2023/08/01 10:13:47;;;;;;;2.80;1.30;;;;;;;20.88;72.06;99011.14;106307;1250;69965;-67
2023/08/01 10:16:15;;;;;;;2.40;1.20;;;;;;;20.86;69.78;99017.15;106132;1258;72822;-69
2023/08/01 10:18:43;;;;;;;4.90;1.30;;;;;;;20.63;69.53;99015.99;106263;1250;61292;-69
2023/08/01 10:21:13;;;;;;;3.50;1.50;;;;;;;20.42;70.74;99022.77;106451;1250;61718;-69
2023/08/01 10:23:41;;;;;;;3.90;1.40;;;;;;;20.30;71.65;99019.02;106199;1255;73512;-68
2023/08/01 10:26:09;;;;;;;2.90;1.30;;;;;;;20.33;73.81;99016.14;106270;1255;70456;-69
2023/08/01 10:28:38;;;;;;;2.60;1.30;;;;;;;20.43;72.78;99012.57;106234;1251;72768;-68
2023/08/01 10:31:13;;;;;;;4.80;1.50;;;;;;;20.56;72.00;99018.09;106530;1250;61570;-69
2023/08/01 10:33:42;;;;;;;3.00;1.20;;;;;;;20.77;70.62;99019.00;106169;1255;61157;-70
2023/08/01 10:36:23;;;;;;;2.80;1.20;;;;;;;20.91;69.19;99021.03;106264;1255;73938;-70
2023/08/01 10:39:01;;;;;;;2.80;1.10;;;;;;;21.03;68.74;99023.83;106417;1250;71888;-70
2023/08/01 10:41:31;;;;;;;2.80;1.20;;;;;;;20.99;67.31;99018.58;106231;1254;72699;-68
2023/08/01 10:44:04;;;;;;;3.20;1.30;;;;;;;20.96;67.97;99017.91;106265;1254;61456;-69
2023/08/01 10:46:59;;;;;;;3.10;1.20;;;;;;;20.87;68.47;99020.73;106327;1255;61247;-68
2023/08/01 10:49:34;;;;;;;3.90;1.40;;;;;;;20.72;68.39;99025.19;106227;1255;74849;-68
2023/08/01 10:52:03;;;;;;;3.80;1.60;;;;;;;20.66;68.89;99023.52;106487;1250;71141;-69
2023/08/01 10:54:29;;;;;;;3.60;1.90;;;;;;;20.62;69.35;99032.17;106358;1255;73237;-68
2023/08/01 10:57:00;;;;;;;3.70;1.50;;;;;;;20.75;69.66;99021.98;106195;1250;61337;-71
2023/08/01 10:59:27;;;;;;;4.10;1.50;;;;;;;20.86;68.86;99008.94;106245;1250;61200;-71
2023/08/01 11:01:58;;;;;;;3.70;1.50;;;;;;;20.89;70.03;99008.11;106323;1250;73113;-74
2023/08/01 11:04:24;;;;;;;4.30;1.70;;;;;;;20.80;69.99;99007.98;106229;1253;71689;-71
2023/08/01 11:06:55;;;;;;;4.10;1.50;;;;;;;20.59;69.63;99015.54;106203;1250;72587;-71
2023/08/01 11:09:27;;;;;;;4.10;1.50;;;;;;;20.40;69.70;99028.27;106258;1250;62093;-71
2023/08/01 11:11:56;;;;;;;3.70;1.50;;;;;;;20.29;71.15;99020.31;106562;1251;61923;-73
2023/08/01 11:14:24;;;;;;;4.00;1.50;;;;;;;20.39;71.59;99023.91;106255;1250;73325;-71
2023/08/01 11:16:54;;;;;;;5.10;1.50;;;;;;;20.57;70.85;99018.72;106295;1253;71188;-72
2023/08/01 11:19:28;;;;;;;3.70;1.70;;;;;;;20.81;71.90;99013.90;106315;1253;71616;-71
2023/08/01 11:21:56;;;;;;;4.20;1.40;;;;;;;21.08;70.73;99010.40;106289;1253;61244;-70